METAR stanice u blizini

 

LYBE - Beograd / Surčin, Srbija
Ažurirano: 23/06/2021 20:30
Vedro
Vedro
 Pravac vetra SI
Vetar: SI 7 km/h
Temperatura: 31°C
Heat Index: 33°C
Tačka rose: 20°C
Vlažnost: 52%
Pritisak: 1015 hPa
Pregled: Vedro
Vidljivost: greater than 10 km
2021/06/23 18:30 LYBE 231830Z 05004KT CAVOK 31/20 Q1015 NOSIG
LYBT - Beograd / Batajnica, Srbija
Ažurirano: 23/06/2021 20:30
Vedro
Vedro
 Pravac vetra S
Vetar: S 7 km/h
Temperatura: 30°C
Heat Index: 31°C
Tačka rose: 19°C
Vlažnost: 52%
Pritisak: 1015 hPa
Pregled: Vedro
Vidljivost: greater than 10 km
2021/06/23 18:30 LYBT 231830Z 01004KT CAVOK 30/19 Q1015 NOSIG
LYVR - Vršac, Srbija
Ažurirano: 23/06/2021 20:30
Vedro
Vedro
 Pravac vetra JI
Vetar: JI 2 km/h
Temperatura: 27°C
Heat Index: 28°C
Tačka rose: 19°C
Vlažnost: 62%
Pritisak: 1015 hPa
Pregled: Vedro
Vidljivost: greater than 10 km
2021/06/23 18:30 LYVR 231830Z AUTO 13001KT CAVOK 27/19 Q1015
 
LYKV - Lađevci, Srbija
Ažurirano: 23/06/2021 20:30
Vedro
Vedro
 Pravac vetra varies
Vetar: varies 4 km/h
Temperatura: 31°C
Heat Index: 33°C
Tačka rose: 20°C
Vlažnost: 52%
Pritisak: 1016 hPa
Pregled: Vedro
Vidljivost: greater than 10 km
2021/06/23 18:30 LYKV 231830Z VRB02KT CAVOK 31/20 Q1016 NOSIG
LYNI - Niš, Srbija
Ažurirano: 23/06/2021 20:30
Vedro
Vedro
 Pravac vetra ISI
Vetar: ISI 4 km/h
Temperatura: 30°C
Heat Index: 31°C
Tačka rose: 19°C
Vlažnost: 52%
Pritisak: 1016 hPa
Pregled: Vedro
Vidljivost: greater than 10 km
2021/06/23 18:30 LYNI 231830Z 06002KT CAVOK 30/19 Q1016 NOSIG
BKPR - Priština, Srbija
Ažurirano: 23/06/2021 21:00
Vedro
Vedro
 Pravac vetra SZ
Vetar: SZ 9 km/h
Temperatura: 28°C
Heat Index: 29°C
Tačka rose: 20°C
Vlažnost: 62%
Pritisak: 1019 hPa
Pregled: Vedro
Vidljivost: greater than 10 km
2021/06/23 19:00 BKPR 231900Z 32005KT CAVOK 28/20 Q1019 NOSIG
 
LHPP - Pecs / Pogany, Hungary
Ažurirano: 23/06/2021 19:45
Vedro
Vedro
 Pravac vetra J
Vetar: J 4 km/h
Temperatura: 32°C
Tačka rose: 14°C
Vlažnost: 33%
Pritisak: 1015 hPa
Pregled: Vedro
Vidljivost: greater than 10 km
2021/06/23 17:45 LHPP 231745Z 18002KT CAVOK 32/14 Q1015
LHUD - Szeged, Hungary
Ažurirano: 04/07/2019 01:45
NOT Current
Vedro
Vedro
 Pravac vetra S
Vetar: S 7 km/h
Temperatura: 18°C
Tačka rose: 13°C
Vlažnost: 73%
Pritisak: 1019 hPa
Pregled: Vedro
Vidljivost: greater than 10 km
2019/07/03 23:45 LHUD 032345Z 35004KT CAVOK 18/13 Q1019
LRTR - Timisoara, Romania
Ažurirano: 23/06/2021 20:30
Vedro
Vedro
 Pravac vetra SZ
Vetar: SZ 6 km/h
Temperatura: 28°C
Heat Index: 28°C
Tačka rose: 16°C
Vlažnost: 48%
Pritisak: 1015 hPa
Pregled: Vedro
Vidljivost: greater than 10 km
2021/06/23 18:30 LRTR 231830Z 31003KT CAVOK 28/16 Q1015
 
LRCV - Craiova, Romania
Ažurirano: 23/06/2021 20:30
Vedro
Vedro
 Pravac vetra I
Vetar: I 11 km/h
Temperatura: 26°C
Tačka rose: 20°C
Vlažnost: 70%
Pritisak: 1015 hPa
Pregled: Vedro
Vidljivost: greater than 10 km
2021/06/23 18:30 LRCV 231830Z 08006KT CAVOK 26/20 Q1015
LBSF - Sofia, Bulgaria
Ažurirano: 23/06/2021 20:30
Vedro
Vedro
 Pravac vetra SZ
Vetar: SZ 6 km/h
Temperatura: 26°C
Tačka rose: 17°C
Vlažnost: 58%
Pritisak: 1018 hPa
Pregled: Vedro
Vidljivost: greater than 10 km
2021/06/23 18:30 LBSF 231830Z 31003KT CAVOK 26/17 Q1018 NOSIG
LWSK - Skoplje, Makedonija
Ažurirano: 23/06/2021 20:30
Vedro
Vedro
 Pravac vetra SI
Vetar: SI 4 km/h
Temperatura: 30°C
Heat Index: 31°C
Tačka rose: 18°C
Vlažnost: 49%
Pritisak: 1016 hPa
Pregled: Vedro
Vidljivost: greater than 10 km
2021/06/23 18:30 LWSK 231830Z 04002KT CAVOK 30/18 Q1016 NOSIG
 
LYPG - Podgorica, Crna Gora
Ažurirano: 23/06/2021 20:30
Vedro
Vedro
 Pravac vetra JJI
Vetar: JJI 6 km/h
Temperatura: 32°C
Heat Index: 34°C
Tačka rose: 19°C
Vlažnost: 46%
Pritisak: 1014 hPa
Pregled: Vedro
Vidljivost: greater than 10 km
2021/06/23 18:30 LYPG 231830Z 16003KT CAVOK 32/19 Q1014 NOSIG
LQSA - Sarajevo, Bosna i Hercegovina
Ažurirano: 23/06/2021 20:30
Vedro
Vedro
 Pravac vetra varies
Vetar: varies 4 km/h
Temperatura: 28°C
Heat Index: 28°C
Tačka rose: 17°C
Vlažnost: 51%
Pritisak: 1017 hPa
Pregled: Vedro
Vidljivost: greater than 10 km
2021/06/23 18:30 LQSA 231830Z VRB02KT CAVOK 28/17 Q1017
LDOS - Osijek, Hrvatksa
Ažurirano: 23/06/2021 20:30
Vedro
Vedro
 Pravac vetra ISI
Vetar: ISI 11 km/h
Temperatura: 28°C
Heat Index: 30°C
Tačka rose: 21°C
Vlažnost: 66%
Pritisak: 1015 hPa
Pregled: Vedro
Vidljivost: greater than 10 km
2021/06/23 18:30 LDOS 231830Z 07006KT CAVOK 28/21 Q1015